createdAt,value
2023-08-06T00:03:39.472Z,15.00
2023-08-06T00:07:41.485Z,15.00
2023-08-06T00:11:44.954Z,15.00
2023-08-06T00:15:46.830Z,14.90
2023-08-06T00:19:48.522Z,15.00
2023-08-06T00:23:50.178Z,14.90
2023-08-06T00:27:52.043Z,14.90
2023-08-06T00:31:53.848Z,14.90
2023-08-06T00:35:55.684Z,14.90
2023-08-06T00:39:57.321Z,14.70
2023-08-06T00:43:59.106Z,14.80
2023-08-06T00:48:01.191Z,14.70
2023-08-06T00:52:05.084Z,14.70
2023-08-06T00:56:08.763Z,14.60
2023-08-06T01:00:11.062Z,14.60
2023-08-06T01:04:13.574Z,14.60
2023-08-06T01:08:52.974Z,14.70
2023-08-06T01:13:28.808Z,14.60
2023-08-06T01:17:31.707Z,14.70
2023-08-06T01:21:33.445Z,14.70
2023-08-06T01:25:43.607Z,14.70
2023-08-06T01:29:51.811Z,14.80
2023-08-06T01:33:54.761Z,14.80
2023-08-06T01:37:57.352Z,14.80
2023-08-06T01:41:59.033Z,14.80
2023-08-06T01:46:00.862Z,14.80
2023-08-06T01:50:02.838Z,14.80
2023-08-06T01:54:04.552Z,14.90
2023-08-06T01:58:06.278Z,14.90
2023-08-06T02:02:08.037Z,14.90
2023-08-06T02:06:09.834Z,14.90
2023-08-06T02:10:11.684Z,14.90
2023-08-06T02:14:13.381Z,14.80
2023-08-06T02:18:18.613Z,14.90
2023-08-06T02:22:20.345Z,14.90
2023-08-06T02:26:22.145Z,14.90
2023-08-06T02:30:23.838Z,14.90
2023-08-06T02:34:26.115Z,14.90
2023-08-06T02:38:28.039Z,14.90
2023-08-06T02:42:29.800Z,15.00
2023-08-06T02:46:31.468Z,14.90
2023-08-06T02:50:39.965Z,14.90
2023-08-06T02:54:41.664Z,14.90
2023-08-06T02:58:43.444Z,14.90
2023-08-06T03:02:45.122Z,14.90
2023-08-06T03:06:46.804Z,14.90
2023-08-06T03:10:48.662Z,14.90
2023-08-06T03:14:50.370Z,14.90
2023-08-06T03:18:52.090Z,14.90
2023-08-06T03:22:53.805Z,14.90
2023-08-06T03:26:55.520Z,14.90
2023-08-06T03:31:04.167Z,14.90
2023-08-06T03:35:06.305Z,14.90
2023-08-06T03:39:07.955Z,14.90
2023-08-06T03:43:09.661Z,14.80
2023-08-06T03:47:11.340Z,14.90
2023-08-06T03:51:13.015Z,14.90
2023-08-06T03:55:14.765Z,14.80
2023-08-06T03:59:16.406Z,14.80
2023-08-06T04:03:18.312Z,14.80
2023-08-06T04:07:20.054Z,14.80
2023-08-06T04:11:21.721Z,14.90
2023-08-06T04:15:23.401Z,14.90
2023-08-06T04:19:25.066Z,14.90
2023-08-06T04:23:26.774Z,14.80
2023-08-06T04:27:28.509Z,14.80
2023-08-06T04:31:30.455Z,14.80
2023-08-06T04:35:32.177Z,14.80
2023-08-06T04:39:33.887Z,14.80
2023-08-06T04:43:35.539Z,14.80
2023-08-06T04:47:37.267Z,14.90
2023-08-06T04:51:39.613Z,14.90
2023-08-06T04:55:41.562Z,15.10
2023-08-06T04:59:43.213Z,15.10
2023-08-06T05:03:44.973Z,15.10
2023-08-06T05:07:50.058Z,15.10
2023-08-06T05:11:51.976Z,15.20
2023-08-06T05:15:56.922Z,15.20
2023-08-06T05:19:58.704Z,15.20
2023-08-06T05:24:00.397Z,15.10
2023-08-06T05:28:02.650Z,15.10
2023-08-06T05:32:04.774Z,15.10
2023-08-06T05:36:06.685Z,15.20
2023-08-06T05:40:09.030Z,15.20
2023-08-06T05:44:10.688Z,15.30
2023-08-06T05:48:12.350Z,15.40
2023-08-06T05:52:14.099Z,15.40
2023-08-06T05:56:16.461Z,15.40
2023-08-06T06:00:18.178Z,15.50
2023-08-06T06:04:19.867Z,15.50
2023-08-06T06:08:21.584Z,15.70
2023-08-06T06:12:23.550Z,15.70
2023-08-06T06:16:25.282Z,15.70
2023-08-06T06:20:27.070Z,15.90
2023-08-06T06:24:28.776Z,16.10
2023-08-06T06:28:30.460Z,16.30
2023-08-06T06:32:32.243Z,16.70
2023-08-06T06:36:34.055Z,17.00
2023-08-06T06:40:35.850Z,17.30
2023-08-06T06:44:37.594Z,17.40
2023-08-06T06:48:39.362Z,17.70
2023-08-06T06:52:41.017Z,17.90
2023-08-06T06:56:43.080Z,17.90
2023-08-06T07:00:44.771Z,17.70
2023-08-06T07:04:46.602Z,17.50
2023-08-06T07:08:48.261Z,17.50
2023-08-06T07:12:49.906Z,17.80
2023-08-06T07:16:51.681Z,17.90
2023-08-06T07:20:55.213Z,17.90
2023-08-06T07:24:56.982Z,18.00
2023-08-06T07:28:58.661Z,18.10
2023-08-06T07:33:00.438Z,18.60
2023-08-06T07:37:02.261Z,18.60
2023-08-06T07:41:04.259Z,18.60
2023-08-06T07:45:06.460Z,18.50
2023-08-06T07:49:08.243Z,18.30
2023-08-06T07:53:09.905Z,18.40
2023-08-06T07:57:12.171Z,18.50
2023-08-06T08:01:14.083Z,18.50
2023-08-06T08:05:15.964Z,18.50
2023-08-06T08:09:17.737Z,18.60
2023-08-06T08:13:19.460Z,18.80
2023-08-06T08:17:21.178Z,18.70
2023-08-06T08:21:25.148Z,18.80
2023-08-06T08:25:30.158Z,18.70
2023-08-06T08:29:33.548Z,18.40
2023-08-06T08:33:35.190Z,18.20
2023-08-06T08:37:37.392Z,17.90
2023-08-06T08:41:39.952Z,17.70
2023-08-06T08:45:43.939Z,17.70
2023-08-06T08:49:47.184Z,17.60
2023-08-06T08:53:51.917Z,17.60
2023-08-06T08:57:53.618Z,17.80
2023-08-06T09:01:56.537Z,18.00
2023-08-06T09:05:59.683Z,18.00
2023-08-06T09:10:04.902Z,18.30
2023-08-06T09:14:09.292Z,18.10
2023-08-06T09:18:12.635Z,18.00
2023-08-06T09:22:14.940Z,17.90
2023-08-06T09:26:17.095Z,17.80
2023-08-06T09:30:33.819Z,18.00
2023-08-06T09:34:35.599Z,18.10
2023-08-06T09:38:41.573Z,18.20
2023-08-06T09:42:46.106Z,18.50
2023-08-06T09:47:04.822Z,18.60
2023-08-06T09:51:08.903Z,18.70
2023-08-06T09:55:13.344Z,18.60
2023-08-06T09:59:16.858Z,18.60
2023-08-06T10:03:19.135Z,18.60
2023-08-06T10:07:21.276Z,18.40
2023-08-06T10:11:25.287Z,18.10
2023-08-06T10:15:29.735Z,17.90
2023-08-06T10:19:32.463Z,17.70
2023-08-06T10:23:36.408Z,17.50
2023-08-06T10:27:57.106Z,17.20
2023-08-06T10:32:01.931Z,16.80
2023-08-06T10:36:08.245Z,16.50
2023-08-06T10:40:10.143Z,16.20
2023-08-06T10:44:12.632Z,15.70
2023-08-06T10:48:35.213Z,15.40
2023-08-06T10:52:36.985Z,15.30
2023-08-06T10:56:42.136Z,14.90
2023-08-06T11:00:43.970Z,14.70
2023-08-06T11:04:46.022Z,14.60
2023-08-06T11:08:52.378Z,14.50
2023-08-06T11:12:54.064Z,14.50
2023-08-06T11:16:55.807Z,14.40
2023-08-06T11:21:00.519Z,14.40
2023-08-06T11:25:02.355Z,14.30
2023-08-06T11:29:04.350Z,14.30
2023-08-06T11:33:08.490Z,14.10
2023-08-06T11:37:11.461Z,14.10
2023-08-06T11:41:13.558Z,14.10
2023-08-06T11:45:15.252Z,14.00
2023-08-06T11:49:16.945Z,14.00
2023-08-06T11:53:18.626Z,14.00
2023-08-06T11:57:21.224Z,14.00
2023-08-06T12:01:23.056Z,14.10
2023-08-06T12:05:30.696Z,14.10
2023-08-06T12:09:32.379Z,14.20
2023-08-06T12:13:34.037Z,14.10
2023-08-06T12:17:36.139Z,14.30
2023-08-06T12:21:38.164Z,14.20
2023-08-06T12:25:39.817Z,14.20
2023-08-06T12:29:45.500Z,14.30
2023-08-06T12:33:47.150Z,14.20
2023-08-06T12:37:48.901Z,14.20
2023-08-06T12:41:51.038Z,14.30
2023-08-06T12:45:52.936Z,14.40
2023-08-06T12:49:54.638Z,14.40
2023-08-06T12:53:56.359Z,14.40
2023-08-06T12:57:58.996Z,14.50
2023-08-06T13:02:01.671Z,14.50
2023-08-06T13:06:03.528Z,14.40
2023-08-06T13:10:05.827Z,14.50
2023-08-06T13:14:11.889Z,14.60
2023-08-06T13:18:13.607Z,14.50
2023-08-06T13:22:15.327Z,14.50
2023-08-06T13:26:17.004Z,14.50
2023-08-06T13:30:19.291Z,14.40
2023-08-06T13:34:21.631Z,14.40
2023-08-06T13:38:23.592Z,14.30
2023-08-06T13:42:25.425Z,14.50
2023-08-06T13:46:27.138Z,14.40
2023-08-06T13:50:29.620Z,14.40
2023-08-06T13:54:31.291Z,14.40
2023-08-06T13:58:33.608Z,14.40
2023-08-06T14:02:35.397Z,14.40
2023-08-06T14:06:37.136Z,14.40
2023-08-06T14:10:38.912Z,14.60
2023-08-06T14:14:41.334Z,14.70
2023-08-06T14:18:43.031Z,14.70
2023-08-06T14:22:44.743Z,14.70
2023-08-06T14:26:46.436Z,14.90
2023-08-06T14:30:48.201Z,14.90
2023-08-06T14:34:49.898Z,14.90
2023-08-06T14:38:59.962Z,14.90
2023-08-06T14:43:03.548Z,15.00
2023-08-06T14:47:05.287Z,15.00
2023-08-06T14:51:06.977Z,15.00
2023-08-06T14:55:09.054Z,15.00
2023-08-06T14:59:10.813Z,15.10
2023-08-06T15:03:12.572Z,15.20
2023-08-06T15:07:14.408Z,15.20
2023-08-06T15:11:16.088Z,15.30
2023-08-06T15:15:17.916Z,15.20
2023-08-06T15:19:19.602Z,15.10
2023-08-06T15:23:21.256Z,15.10
2023-08-06T15:27:23.096Z,15.10
2023-08-06T15:31:24.806Z,15.10
2023-08-06T15:35:27.864Z,15.20
2023-08-06T15:39:29.557Z,15.10
2023-08-06T15:43:31.320Z,15.30
2023-08-06T15:47:33.130Z,15.20
2023-08-06T15:51:35.045Z,15.20
2023-08-06T15:55:38.693Z,15.10
2023-08-06T15:59:40.645Z,15.00
2023-08-06T16:03:45.312Z,14.90
2023-08-06T16:07:46.995Z,14.90
2023-08-06T16:11:48.709Z,14.90
2023-08-06T16:15:50.490Z,14.90
2023-08-06T16:19:57.722Z,14.90
2023-08-06T16:24:00.062Z,14.90
2023-08-06T16:28:01.748Z,14.90
2023-08-06T16:32:05.604Z,14.90
2023-08-06T16:36:07.333Z,15.00
2023-08-06T16:40:10.420Z,14.80
2023-08-06T16:44:13.226Z,14.70
2023-08-06T16:48:15.024Z,14.70
2023-08-06T16:52:18.053Z,14.70
2023-08-06T16:56:19.736Z,14.70
2023-08-06T17:00:21.439Z,14.60
2023-08-06T17:04:23.448Z,14.70
2023-08-06T17:08:25.467Z,14.60
2023-08-06T17:12:27.295Z,14.60
2023-08-06T17:16:29.383Z,14.50
2023-08-06T17:20:31.138Z,14.50
2023-08-06T17:24:32.815Z,14.60
2023-08-06T17:28:34.505Z,14.60
2023-08-06T17:32:37.042Z,14.60
2023-08-06T17:36:38.778Z,14.60
2023-08-06T17:40:40.689Z,14.60
2023-08-06T17:44:42.679Z,14.60
2023-08-06T17:48:44.407Z,14.50
2023-08-06T17:52:46.579Z,14.40
2023-08-06T17:56:48.298Z,14.40
2023-08-06T18:00:50.955Z,14.40
2023-08-06T18:04:52.709Z,14.40
2023-08-06T18:08:54.429Z,14.40
2023-08-06T18:12:56.308Z,14.40
2023-08-06T18:16:58.232Z,14.30
2023-08-06T18:21:00.217Z,14.20
2023-08-06T18:25:05.675Z,14.20
2023-08-06T18:29:07.471Z,14.20
2023-08-06T18:33:09.206Z,14.10
2023-08-06T18:37:10.897Z,14.00
2023-08-06T18:41:12.685Z,13.90
2023-08-06T18:45:14.441Z,13.90
2023-08-06T18:49:16.102Z,13.80
2023-08-06T18:53:17.815Z,13.80
2023-08-06T18:57:20.624Z,13.70
2023-08-06T19:01:22.365Z,13.70
2023-08-06T19:05:27.583Z,13.60
2023-08-06T19:09:29.561Z,13.60
2023-08-06T19:13:31.337Z,13.60
2023-08-06T19:17:33.129Z,13.50
2023-08-06T19:21:34.897Z,13.50
2023-08-06T19:25:50.310Z,13.50
2023-08-06T19:29:52.104Z,13.50
2023-08-06T19:33:53.838Z,13.50
2023-08-06T19:37:55.521Z,13.60
2023-08-06T19:41:57.375Z,13.50
2023-08-06T19:45:59.664Z,13.40
2023-08-06T19:50:01.453Z,13.50
2023-08-06T19:54:03.329Z,13.50
2023-08-06T19:58:05.107Z,13.40
2023-08-06T20:02:06.911Z,13.40
2023-08-06T20:06:09.274Z,13.40
2023-08-06T20:10:11.855Z,13.40
2023-08-06T20:14:13.762Z,13.40
2023-08-06T20:18:16.141Z,13.40
2023-08-06T20:22:17.991Z,13.40
2023-08-06T20:26:19.809Z,13.30
2023-08-06T20:30:21.501Z,13.40
2023-08-06T20:34:23.235Z,13.40
2023-08-06T20:38:25.799Z,13.30
2023-08-06T20:42:27.478Z,13.30
2023-08-06T20:46:29.311Z,13.30
2023-08-06T20:50:31.210Z,13.20
2023-08-06T20:54:33.224Z,13.20
2023-08-06T20:58:34.948Z,13.20
2023-08-06T21:02:36.713Z,13.10
2023-08-06T21:06:38.591Z,13.10
2023-08-06T21:10:40.320Z,13.10
2023-08-06T21:14:42.141Z,13.10
2023-08-06T21:18:43.865Z,13.00
2023-08-06T21:22:45.562Z,13.00
2023-08-06T21:26:47.272Z,13.00
2023-08-06T21:31:06.975Z,13.00
2023-08-06T21:35:11.464Z,12.90
2023-08-06T21:39:13.543Z,12.90
2023-08-06T21:43:15.231Z,12.90
2023-08-06T21:47:17.063Z,12.90
2023-08-06T21:51:20.986Z,12.90
2023-08-06T21:55:22.841Z,12.90
2023-08-06T21:59:24.524Z,12.90
2023-08-06T22:03:26.340Z,13.00
2023-08-06T22:07:28.145Z,13.00
2023-08-06T22:11:29.851Z,13.00
2023-08-06T22:15:31.589Z,13.00
2023-08-06T22:19:33.720Z,12.90
2023-08-06T22:23:35.489Z,12.90
2023-08-06T22:27:37.197Z,12.90
2023-08-06T22:31:38.896Z,12.90
2023-08-06T22:35:40.619Z,12.90
2023-08-06T22:39:42.312Z,12.90
2023-08-06T22:43:44.086Z,12.90
2023-08-06T22:47:45.868Z,12.80
2023-08-06T22:51:47.943Z,12.80
2023-08-06T22:56:07.539Z,12.70
2023-08-06T23:00:13.085Z,12.70
2023-08-06T23:04:15.124Z,12.70
2023-08-06T23:08:16.951Z,12.70
2023-08-06T23:12:18.714Z,12.70
2023-08-06T23:16:20.474Z,12.70
2023-08-06T23:20:22.320Z,12.60
2023-08-06T23:24:28.135Z,12.60
2023-08-06T23:28:29.873Z,12.60
2023-08-06T23:32:32.805Z,12.60
2023-08-06T23:36:34.569Z,12.60
2023-08-06T23:40:36.262Z,12.60
2023-08-06T23:44:37.971Z,12.60
2023-08-06T23:48:39.717Z,12.60
2023-08-06T23:52:41.363Z,12.60
2023-08-06T23:56:43.125Z,12.50
